Airport Information

KSLE - McNary Field Airport

KSLE 160656Z AUTO 33007KT 10SM BKN095 03/M02 A2975 RMK AO2 SLP074 T00281022


  • General Information

  • Coordinates: N 44°54'34"/ W 123°0'10"
  • Location: N/A
  • Surveyed Elevation: 214 MSL

Operations

Flow Name Active Runways Conditions

Green background denotes normal operations.


Common Frequencies

Callsign Frequency Position Name

More at the Document Center


Charts